Time;durP1;ratioP1;P1;durP2;ratioP2;P2;SDS_P1;SDS_P2;PMS_P1;PMS_P2;Temp;Humidity;BMP_temperature;BMP_pressure;BME280_temperature;BME280_humidity;BME280_pressure;Samples;Min_cycle;Max_cycle;Signal;HPM_P1;HPM_P2
2022/03/11 00:00:42;;;;;;;1999.90;999.90;;;;;;;-2.03;38.65;102365.53;5023321;27;98023;-71
2022/03/11 00:03:11;;;;;;;1999.90;999.90;;;;;;;-2.07;38.37;102379.03;5009809;27;99189;-70
2022/03/11 00:05:39;;;;;;;1999.90;999.90;;;;;;;-2.12;38.71;102374.16;5018639;28;97558;-70
2022/03/11 00:08:09;;;;;;;1999.90;999.90;;;;;;;-2.18;38.72;102374.44;5019488;28;97177;-70
2022/03/11 00:10:37;;;;;;;1999.90;999.90;;;;;;;-2.24;39.23;102372.94;4998362;28;96945;-70
2022/03/11 00:13:04;;;;;;;1999.90;999.90;;;;;;;-2.28;39.27;102363.91;5017166;27;99524;-70
2022/03/11 00:15:32;;;;;;;1999.90;999.90;;;;;;;-2.28;38.84;102361.31;5013556;27;97930;-71
2022/03/11 00:18:00;;;;;;;1999.90;999.90;;;;;;;-2.32;38.59;102356.56;4999400;28;97033;-70
2022/03/11 00:20:28;;;;;;;1999.90;999.90;;;;;;;-2.33;39.20;102361.63;4985265;28;97272;-70
2022/03/11 00:22:56;;;;;;;1999.90;999.90;;;;;;;-2.35;39.28;102357.94;5015646;27;99096;-70
2022/03/11 00:25:25;;;;;;;1999.90;999.90;;;;;;;-2.38;39.12;102358.56;5018254;27;97107;-70
2022/03/11 00:27:53;;;;;;;1999.90;999.90;;;;;;;-2.38;38.69;102368.09;5002715;28;97621;-70
2022/03/11 00:30:20;;;;;;;1999.90;999.90;;;;;;;-2.42;38.66;102351.22;5008394;27;97581;-70
2022/03/11 00:32:48;;;;;;;1999.90;999.90;;;;;;;-2.45;38.78;102361.34;5009081;27;99514;-70
2022/03/11 00:35:16;;;;;;;1999.90;999.90;;;;;;;-2.47;39.03;102361.97;5005883;27;97624;-70
2022/03/11 00:37:44;;;;;;;1999.90;999.90;;;;;;;-2.50;39.23;102354.75;5008241;28;97595;-70
2022/03/11 00:40:13;;;;;;;1999.90;999.90;;;;;;;-2.52;38.88;102358.91;5012360;27;96939;-70
2022/03/11 00:42:42;;;;;;;1999.90;999.90;;;;;;;-2.54;39.06;102367.31;5017998;27;98047;-69
2022/03/11 00:45:10;;;;;;;1999.90;999.90;;;;;;;-2.55;39.07;102362.91;4984338;28;99173;-69
2022/03/11 00:47:38;;;;;;;1999.90;999.90;;;;;;;-2.59;39.59;102372.09;5001655;28;97765;-69
2022/03/11 00:50:07;;;;;;;1999.90;999.90;;;;;;;-2.60;39.09;102362.41;5016481;28;97377;-70
2022/03/11 00:52:35;;;;;;;1999.90;999.90;;;;;;;-2.61;39.36;102358.00;5020423;27;98933;-70
2022/03/11 00:55:03;;;;;;;1999.90;999.90;;;;;;;-2.63;39.12;102362.13;4999809;28;99330;-70
2022/03/11 00:57:31;;;;;;;1999.90;999.90;;;;;;;-2.67;38.92;102364.31;5013811;27;96821;-70
2022/03/11 01:00:00;;;;;;;1999.90;999.90;;;;;;;-2.71;38.91;102360.47;5013721;27;97519;-69
2022/03/11 01:02:33;;;;;;;1999.90;999.90;;;;;;;-2.75;38.80;102363.53;5017506;27;97891;-70
2022/03/11 01:05:03;;;;;;;1999.90;999.90;;;;;;;-2.80;39.31;102364.75;5017724;27;98868;-69
2022/03/11 01:07:31;;;;;;;1999.90;999.90;;;;;;;-2.84;39.11;102357.41;4997989;28;96095;-69
2022/03/11 01:09:59;;;;;;;1999.90;999.90;;;;;;;-2.83;39.25;102359.25;5000777;28;97419;-69
2022/03/11 01:12:26;;;;;;;1999.90;999.90;;;;;;;-2.82;39.25;102361.09;5028718;27;98708;-70
2022/03/11 01:14:54;;;;;;;1999.90;999.90;;;;;;;-2.83;39.53;102361.84;5018407;28;97869;-69
2022/03/11 01:17:23;;;;;;;1999.90;999.90;;;;;;;-2.85;39.75;102366.91;5030323;27;98660;-70
2022/03/11 01:19:51;;;;;;;1999.90;999.90;;;;;;;-2.86;39.64;102365.09;5019492;28;97760;-69
2022/03/11 01:22:19;;;;;;;1999.90;999.90;;;;;;;-2.89;39.90;102356.94;5008429;28;97818;-69
2022/03/11 01:24:46;;;;;;;1999.90;999.90;;;;;;;-2.91;39.03;102354.97;5015461;27;100656;-69
2022/03/11 01:27:14;;;;;;;1999.90;999.90;;;;;;;-2.95;39.23;102351.13;5019004;27;98866;-69
2022/03/11 01:29:42;;;;;;;1999.90;999.90;;;;;;;-2.98;39.18;102350.81;5015992;27;97563;-70
2022/03/11 01:32:10;;;;;;;1999.90;999.90;;;;;;;-3.01;39.77;102345.31;5015933;27;97755;-69
2022/03/11 01:34:39;;;;;;;1999.90;999.90;;;;;;;-3.03;39.75;102349.44;5006799;27;98800;-69
2022/03/11 01:37:07;;;;;;;1999.90;999.90;;;;;;;-3.07;39.35;102346.38;5017158;27;97053;-69
2022/03/11 01:39:38;;;;;;;1999.90;999.90;;;;;;;-3.07;39.55;102346.38;5021362;27;97199;-70
2022/03/11 01:42:06;;;;;;;1999.90;999.90;;;;;;;-3.13;39.44;102343.19;5021231;27;98884;-68
2022/03/11 01:44:34;;;;;;;1999.90;999.90;;;;;;;-3.12;39.68;102340.72;4997485;28;100491;-69
2022/03/11 01:47:02;;;;;;;1999.90;999.90;;;;;;;-3.14;39.22;102341.31;5002102;28;96918;-69
2022/03/11 01:49:29;;;;;;;1999.90;999.90;;;;;;;-3.20;39.49;102335.53;5007624;27;97386;-69
2022/03/11 01:51:58;;;;;;;1999.90;999.90;;;;;;;-3.26;39.37;102332.28;5016404;27;98133;-69
2022/03/11 01:54:26;;;;;;;1999.90;999.90;;;;;;;-3.27;39.43;102327.84;5015596;27;98878;-70
2022/03/11 01:56:54;;;;;;;1999.90;999.90;;;;;;;-3.31;39.73;102328.31;5004460;27;99035;-68
2022/03/11 01:59:22;;;;;;;1999.90;999.90;;;;;;;-3.32;39.94;102331.66;4984705;28;97070;-69
2022/03/11 02:01:49;;;;;;;1999.90;999.90;;;;;;;-3.32;39.61;102336.88;5010883;28;98603;-69
2022/03/11 02:04:17;;;;;;;1999.90;999.90;;;;;;;-3.32;39.50;102334.28;5004251;27;97995;-70
2022/03/11 02:06:45;;;;;;;1999.90;999.90;;;;;;;-3.30;39.55;102330.16;5011303;27;96882;-69
2022/03/11 02:09:14;;;;;;;1999.90;999.90;;;;;;;-3.30;39.23;102324.94;5006864;27;96695;-69
2022/03/11 02:11:42;;;;;;;1999.90;999.90;;;;;;;-3.31;39.70;102325.72;5012914;27;97531;-69
2022/03/11 02:14:09;;;;;;;1999.90;999.90;;;;;;;-3.35;39.83;102320.97;5005961;27;99188;-69
2022/03/11 02:16:40;;;;;;;1999.90;999.90;;;;;;;-3.39;39.75;102321.41;5000149;28;97404;-69
2022/03/11 02:19:08;;;;;;;1999.90;999.90;;;;;;;-3.41;39.66;102317.72;5018186;27;97364;-69
2022/03/11 02:21:42;;;;;;;1999.90;999.90;;;;;;;-3.45;39.51;102328.59;5019519;27;98022;-70
2022/03/11 02:24:11;;;;;;;1999.90;999.90;;;;;;;-3.48;39.63;102324.00;5015434;27;97622;-71
2022/03/11 02:26:39;;;;;;;1999.90;999.90;;;;;;;-3.50;39.55;102319.41;5016241;27;98084;-69
2022/03/11 02:29:08;;;;;;;1999.90;999.90;;;;;;;-3.04;38.78;102315.47;5004187;27;98234;-69
2022/03/11 02:31:36;;;;;;;1999.90;999.90;;;;;;;-3.35;39.42;102316.66;5014048;27;97213;-69
2022/03/11 02:34:05;;;;;;;1999.90;999.90;;;;;;;-3.40;39.26;102319.59;5000902;28;99259;-69
2022/03/11 02:36:32;;;;;;;1999.90;999.90;;;;;;;-3.46;39.60;102316.34;5012731;27;96904;-70
2022/03/11 02:39:00;;;;;;;1999.90;999.90;;;;;;;-3.51;39.55;102317.59;4985624;28;97470;-69
2022/03/11 02:41:29;;;;;;;1999.90;999.90;;;;;;;-3.57;39.89;102314.34;5013127;27;99061;-69
2022/03/11 02:43:57;;;;;;;1999.90;999.90;;;;;;;-3.58;39.71;102309.88;5020185;28;97808;-70
2022/03/11 02:46:24;;;;;;;1999.90;999.90;;;;;;;-3.63;39.63;102309.44;5017536;27;97196;-69
2022/03/11 02:48:52;;;;;;;1999.90;999.90;;;;;;;-3.65;39.53;102312.63;5018826;27;97060;-69
2022/03/11 02:51:20;;;;;;;1999.90;999.90;;;;;;;-3.14;38.67;102310.09;5015115;28;99784;-69
2022/03/11 02:53:48;;;;;;;1999.90;999.90;;;;;;;-3.44;39.48;102309.63;5004079;27;99552;-69
2022/03/11 02:56:16;;;;;;;1999.90;999.90;;;;;;;-3.52;39.40;102310.53;5014913;27;97217;-69
2022/03/11 02:58:45;;;;;;;1999.90;999.90;;;;;;;-3.57;39.84;102306.53;5009641;27;98051;-70
2022/03/11 03:01:13;;;;;;;1999.90;999.90;;;;;;;-3.62;39.50;102303.47;4989422;27;100974;-69
2022/03/11 03:03:41;;;;;;;1999.90;999.90;;;;;;;-3.64;39.74;102310.19;4996927;27;98635;-69
2022/03/11 03:06:09;;;;;;;1999.90;999.90;;;;;;;-3.69;39.72;102306.22;5005703;27;97952;-69
2022/03/11 03:08:37;;;;;;;1999.90;999.90;;;;;;;-3.74;39.75;102302.22;5013609;27;97213;-70
2022/03/11 03:11:05;;;;;;;1999.90;999.90;;;;;;;-3.80;39.81;102290.28;5014329;27;97842;-69
2022/03/11 03:13:33;;;;;;;1999.90;999.90;;;;;;;-3.88;39.90;102287.81;5001509;28;99346;-70
2022/03/11 03:16:02;;;;;;;1999.90;999.90;;;;;;;-3.92;39.94;102284.75;5019267;28;97428;-69
2022/03/11 03:18:30;;;;;;;1999.90;999.90;;;;;;;-3.93;39.86;102289.03;5019081;27;97849;-71
2022/03/11 03:20:57;;;;;;;1999.90;999.90;;;;;;;-3.94;39.79;102284.59;4987582;28;97565;-69
2022/03/11 03:23:26;;;;;;;1999.90;999.90;;;;;;;-3.94;39.82;102289.78;5012907;27;98528;-70
2022/03/11 03:25:54;;;;;;;1999.90;999.90;;;;;;;-3.97;39.80;102292.06;5021686;28;97573;-70
2022/03/11 03:28:22;;;;;;;1999.90;999.90;;;;;;;-4.01;39.86;102292.53;5003859;28;96865;-71
2022/03/11 03:30:49;;;;;;;1999.90;999.90;;;;;;;-4.04;39.95;102292.19;5020230;27;97687;-70
2022/03/11 03:33:19;;;;;;;1999.90;999.90;;;;;;;-4.07;39.90;102299.69;4993482;28;99991;-69
2022/03/11 03:35:47;;;;;;;1999.90;999.90;;;;;;;-4.11;40.07;102302.72;5015742;27;97688;-70
2022/03/11 03:38:19;;;;;;;1999.90;999.90;;;;;;;-4.13;40.14;102291.25;5009440;27;97321;-69
2022/03/11 03:40:47;;;;;;;1999.90;999.90;;;;;;;-4.12;40.04;102302.56;5002795;28;99760;-69
2022/03/11 03:43:15;;;;;;;1999.90;999.90;;;;;;;-4.13;40.21;102301.66;5015681;27;100388;-70
2022/03/11 03:45:42;;;;;;;1999.90;999.90;;;;;;;-4.13;40.07;102293.84;5019023;27;97413;-70
2022/03/11 03:48:10;;;;;;;1999.90;999.90;;;;;;;-4.14;40.23;102291.09;5013740;27;97806;-69
2022/03/11 03:50:39;;;;;;;1999.90;999.90;;;;;;;-4.16;40.08;102303.00;4985068;28;101108;-69
2022/03/11 03:53:07;;;;;;;1999.90;999.90;;;;;;;-4.20;40.09;102296.59;4999741;27;98766;-69
2022/03/11 03:55:34;;;;;;;1999.90;999.90;;;;;;;-4.21;40.01;102289.56;4984672;28;97677;-69
2022/03/11 03:58:02;;;;;;;1999.90;999.90;;;;;;;-4.22;40.06;102290.31;5011416;27;97657;-70
2022/03/11 04:00:30;;;;;;;1999.90;999.90;;;;;;;-4.22;40.30;102291.97;5020209;27;97720;-70
2022/03/11 04:02:58;;;;;;;1999.90;999.90;;;;;;;-4.26;40.29;102285.53;4999333;28;98388;-70
2022/03/11 04:05:26;;;;;;;1999.90;999.90;;;;;;;-4.28;40.19;102284.47;5008147;27;97571;-70
2022/03/11 04:07:56;;;;;;;1999.90;999.90;;;;;;;-4.30;40.11;102288.59;5020690;28;98313;-71
2022/03/11 04:10:24;;;;;;;1999.90;999.90;;;;;;;-4.32;40.40;102290.13;5017607;27;100255;-69
2022/03/11 04:12:52;;;;;;;1999.90;999.90;;;;;;;-4.33;40.07;102276.94;5017042;27;97663;-70
2022/03/11 04:15:19;;;;;;;1999.90;999.90;;;;;;;-4.39;40.30;102282.41;5023580;27;97426;-70
2022/03/11 04:17:47;;;;;;;1999.90;999.90;;;;;;;-4.40;40.36;102277.06;5003773;28;97051;-70
2022/03/11 04:20:15;;;;;;;1999.90;999.90;;;;;;;-4.41;40.38;102276.19;5014243;28;97062;-69
2022/03/11 04:22:43;;;;;;;1999.90;999.90;;;;;;;-4.41;40.46;102277.84;5011135;27;98503;-69
2022/03/11 04:25:14;;;;;;;1999.90;999.90;;;;;;;-4.46;40.24;102266.97;5018499;28;97867;-69
2022/03/11 04:27:42;;;;;;;1999.90;999.90;;;;;;;-4.48;40.28;102270.19;5020438;28;97174;-70
2022/03/11 04:30:11;;;;;;;1999.90;999.90;;;;;;;-4.52;40.29;102265.41;5020292;27;98941;-70
2022/03/11 04:32:39;;;;;;;1999.90;999.90;;;;;;;-4.59;40.20;102263.88;5000216;27;98510;-69
2022/03/11 04:35:08;;;;;;;1999.90;999.90;;;;;;;-4.62;40.32;102265.19;4972728;28;96800;-69
2022/03/11 04:37:36;;;;;;;1999.90;999.90;;;;;;;-4.65;40.26;102258.03;5000761;28;100206;-70
2022/03/11 04:40:06;;;;;;;1999.90;999.90;;;;;;;-4.67;40.39;102246.56;5011246;28;98246;-70
2022/03/11 04:42:36;;;;;;;1999.90;999.90;;;;;;;-4.71;40.19;102252.19;5019299;28;97399;-70
2022/03/11 04:45:04;;;;;;;1999.90;999.90;;;;;;;-4.72;40.51;102258.16;5011608;27;97208;-69
2022/03/11 04:47:32;;;;;;;1999.90;999.90;;;;;;;-4.72;40.25;102252.97;4998197;28;97301;-69
2022/03/11 04:50:00;;;;;;;1999.90;999.90;;;;;;;-4.77;40.32;102248.03;4988105;28;100374;-69
2022/03/11 04:52:28;;;;;;;1999.90;999.90;;;;;;;-4.78;40.40;102248.78;4991336;28;99095;-70
2022/03/11 04:54:55;;;;;;;1999.90;999.90;;;;;;;-4.78;40.26;102254.91;5014719;27;98830;-69
2022/03/11 04:57:23;;;;;;;1999.90;999.90;;;;;;;-4.81;40.31;102253.66;5012820;27;97899;-69
2022/03/11 04:59:52;;;;;;;1999.90;999.90;;;;;;;-4.83;40.12;102253.50;5012314;27;99087;-69
2022/03/11 05:02:26;;;;;;;1999.90;999.90;;;;;;;-4.89;40.03;102252.84;5010829;27;97579;-70
2022/03/11 05:04:54;;;;;;;1999.90;999.90;;;;;;;-4.86;40.46;102255.75;5008493;27;98067;-69
2022/03/11 05:07:22;;;;;;;1999.90;999.90;;;;;;;-4.88;40.49;102255.59;5018011;27;97695;-70
2022/03/11 05:09:49;;;;;;;1999.90;999.90;;;;;;;-4.87;40.36;102266.91;5029639;27;99182;-70
2022/03/11 05:12:17;;;;;;;1999.90;999.90;;;;;;;-4.88;40.08;102262.44;4996849;28;100415;-69
2022/03/11 05:14:45;;;;;;;1999.90;999.90;;;;;;;-4.90;40.30;102261.41;4998564;28;97024;-69
2022/03/11 05:17:16;;;;;;;1999.90;999.90;;;;;;;-4.89;40.18;102265.81;5014334;28;97074;-70
2022/03/11 05:19:45;;;;;;;1999.90;999.90;;;;;;;-4.90;40.27;102264.00;5016140;28;96987;-70
2022/03/11 05:22:13;;;;;;;1999.90;999.90;;;;;;;-4.91;40.22;102259.53;5010505;28;97878;-70
2022/03/11 05:24:40;;;;;;;1999.90;999.90;;;;;;;-4.94;40.36;102265.34;5018373;27;97590;-70
2022/03/11 05:27:08;;;;;;;1999.90;999.90;;;;;;;-4.94;40.22;102269.63;5015875;27;97629;-69
2022/03/11 05:29:36;;;;;;;1999.90;999.90;;;;;;;-4.96;40.20;102261.69;5007823;28;97908;-69
2022/03/11 05:32:04;;;;;;;1999.90;999.90;;;;;;;-4.98;40.12;102268.38;4995425;28;100457;-69
2022/03/11 05:34:33;;;;;;;1999.90;999.90;;;;;;;-5.02;39.65;102268.78;5013103;27;98191;-70
2022/03/11 05:37:01;;;;;;;1999.90;999.90;;;;;;;-5.04;40.08;102269.38;4995053;28;97510;-70
2022/03/11 05:39:28;;;;;;;1999.90;999.90;;;;;;;-5.04;39.92;102264.19;5018138;27;99156;-69
2022/03/11 05:41:56;;;;;;;1999.90;999.90;;;;;;;-5.06;39.78;102269.22;5002268;28;100584;-69
2022/03/11 05:44:24;;;;;;;1999.90;999.90;;;;;;;-5.04;40.06;102264.19;5003967;27;96842;-70
2022/03/11 05:46:52;;;;;;;1999.90;999.90;;;;;;;-5.05;39.81;102272.75;4998734;28;97159;-70
2022/03/11 05:49:20;;;;;;;1999.90;999.90;;;;;;;-5.05;40.07;102270.16;5015846;27;99478;-70
2022/03/11 05:51:49;;;;;;;1999.90;999.90;;;;;;;-5.07;39.96;102267.41;5001069;28;98022;-70
2022/03/11 05:54:17;;;;;;;1999.90;999.90;;;;;;;-5.08;39.78;102262.94;5015382;27;97288;-70
2022/03/11 05:56:47;;;;;;;1999.90;999.90;;;;;;;-5.07;39.91;102263.88;5017316;27;97469;-70
2022/03/11 05:59:15;;;;;;;1999.90;999.90;;;;;;;-5.06;39.88;102268.28;5013837;27;97656;-70
2022/03/11 06:01:44;;;;;;;1999.90;999.90;;;;;;;-5.05;39.78;102268.47;5013982;27;98675;-70
2022/03/11 06:04:12;;;;;;;1999.90;999.90;;;;;;;-5.04;39.56;102283.28;4999685;28;97635;-70
2022/03/11 06:06:39;;;;;;;1999.90;999.90;;;;;;;-5.03;39.68;102271.25;5007201;27;98872;-70
2022/03/11 06:09:08;;;;;;;1999.90;999.90;;;;;;;-5.03;39.58;102272.13;5003391;28;97745;-69
2022/03/11 06:11:36;;;;;;;1999.90;999.90;;;;;;;-5.04;39.87;102274.56;4995343;27;97593;-70
2022/03/11 06:14:04;;;;;;;1999.90;999.90;;;;;;;-5.05;39.54;102277.94;4997013;28;97807;-70
2022/03/11 06:16:32;;;;;;;1999.90;999.90;;;;;;;-5.05;39.67;102263.28;4984624;28;97712;-69
2022/03/11 06:19:00;;;;;;;1999.90;999.90;;;;;;;-5.02;39.43;102267.88;5021706;28;98892;-69
2022/03/11 06:21:27;;;;;;;1999.90;999.90;;;;;;;-5.01;39.30;102267.13;4982625;28;97861;-70
2022/03/11 06:23:56;;;;;;;1999.90;999.90;;;;;;;-4.99;39.36;102273.41;4981178;28;100185;-69
2022/03/11 06:26:25;;;;;;;1999.90;999.90;;;;;;;-4.99;39.36;102276.91;5010398;27;96928;-70
2022/03/11 06:28:53;;;;;;;1999.90;999.90;;;;;;;-4.98;39.02;102283.00;5009702;27;99101;-69
2022/03/11 06:31:21;;;;;;;1999.90;999.90;;;;;;;-5.00;39.12;102277.66;5019809;27;100530;-70
2022/03/11 06:33:49;;;;;;;1999.90;999.90;;;;;;;-4.99;38.96;102279.50;4970200;27;97216;-70
2022/03/11 06:36:16;;;;;;;1999.90;999.90;;;;;;;-4.98;38.74;102278.75;5010639;27;97529;-70
2022/03/11 06:38:44;;;;;;;1999.90;999.90;;;;;;;-4.96;39.00;102277.25;5009766;27;101962;-70
2022/03/11 06:41:12;;;;;;;1999.90;999.90;;;;;;;-4.92;38.81;102279.38;5025823;27;98475;-70
2022/03/11 06:43:41;;;;;;;1999.90;999.90;;;;;;;-4.88;38.79;102283.22;4972007;28;97133;-70
2022/03/11 06:46:09;;;;;;;1999.90;999.90;;;;;;;-4.86;38.89;102281.72;5028024;27;97110;-70
2022/03/11 06:48:37;;;;;;;1999.90;999.90;;;;;;;-4.81;38.92;102282.22;5024140;27;97382;-70
2022/03/11 06:51:05;;;;;;;1999.90;999.90;;;;;;;-4.78;38.78;102285.13;5025000;28;99416;-70
2022/03/11 06:53:33;;;;;;;1999.90;999.90;;;;;;;-4.76;38.72;102292.31;4988303;28;97971;-70
2022/03/11 06:56:01;;;;;;;1999.90;999.90;;;;;;;-4.75;38.66;102281.16;5018111;27;98611;-70
2022/03/11 06:58:29;;;;;;;1999.90;999.90;;;;;;;-4.73;38.64;102287.44;5018618;27;97677;-70
2022/03/11 07:00:58;;;;;;;1999.90;999.90;;;;;;;-4.71;38.36;102280.75;4977531;28;100535;-69
2022/03/11 07:03:26;;;;;;;1999.90;999.90;;;;;;;-4.68;38.17;102281.06;4995616;28;96914;-70
2022/03/11 07:05:54;;;;;;;1999.90;999.90;;;;;;;-4.63;38.44;102277.28;5024540;28;97388;-70
2022/03/11 07:08:22;;;;;;;1999.90;999.90;;;;;;;-4.58;38.52;102277.75;5010320;28;100610;-70
2022/03/11 07:10:51;;;;;;;1999.90;999.90;;;;;;;-4.54;37.97;102275.66;5008575;28;100598;-70
2022/03/11 07:13:18;;;;;;;1999.90;999.90;;;;;;;-4.48;38.25;102281.47;5022091;27;98530;-69
2022/03/11 07:15:46;;;;;;;1999.90;999.90;;;;;;;-4.44;38.19;102270.63;5022812;27;98496;-70
2022/03/11 07:18:15;;;;;;;1999.90;999.90;;;;;;;-4.37;38.10;102274.81;4990522;28;99794;-69
2022/03/11 07:20:43;;;;;;;1999.90;999.90;;;;;;;-4.32;37.83;102274.53;5019287;28;97172;-69
2022/03/11 07:23:27;;;;;;;1999.90;999.90;;;;;;;-4.24;38.14;102276.22;5014976;27;97728;-69
2022/03/11 07:25:54;;;;;;;1999.90;999.90;;;;;;;-4.19;37.88;102277.63;5019512;28;97529;-69
2022/03/11 07:28:22;;;;;;;1999.90;999.90;;;;;;;-4.13;37.79;102278.25;5023884;27;99353;-70
2022/03/11 07:30:50;;;;;;;1999.90;999.90;;;;;;;-4.07;37.64;102283.16;5002511;28;99038;-69
2022/03/11 07:33:19;;;;;;;1999.90;999.90;;;;;;;-4.00;37.76;102281.34;5020129;27;97483;-69
2022/03/11 07:35:47;;;;;;;1999.90;999.90;;;;;;;-3.95;37.64;102287.94;5022562;27;97886;-69
2022/03/11 07:38:14;;;;;;;1999.90;999.90;;;;;;;-3.88;37.53;102281.72;5021327;27;98874;-70
2022/03/11 07:40:42;;;;;;;1999.90;999.90;;;;;;;-3.81;37.35;102280.63;5022237;28;97150;-69
2022/03/11 07:43:13;;;;;;;1999.90;999.90;;;;;;;-3.75;37.37;102281.28;5021838;27;96860;-69
2022/03/11 07:45:40;;;;;;;1999.90;999.90;;;;;;;-3.71;37.22;102280.81;5023756;27;96932;-70
2022/03/11 07:48:08;;;;;;;1999.90;999.90;;;;;;;-3.66;36.96;102277.94;5024236;27;97586;-71
2022/03/11 07:50:39;;;;;;;1999.90;999.90;;;;;;;-3.61;37.35;102279.31;4981562;28;99468;-71
2022/03/11 07:53:07;;;;;;;1999.90;999.90;;;;;;;-3.56;36.86;102280.69;5011467;27;97464;-71
2022/03/11 07:55:34;;;;;;;1999.90;999.90;;;;;;;-3.51;36.56;102286.38;5014216;27;97769;-71
2022/03/11 07:58:02;;;;;;;1999.90;999.90;;;;;;;-3.46;36.93;102288.66;5000044;28;101244;-72
2022/03/11 08:00:30;;;;;;;1999.90;999.90;;;;;;;-3.39;36.74;102287.59;5020541;27;97080;-72
2022/03/11 08:02:58;;;;;;;1999.90;999.90;;;;;;;-3.31;36.77;102290.19;5033609;27;96883;-70
2022/03/11 08:05:26;;;;;;;1999.90;999.90;;;;;;;-3.25;36.76;102283.00;5018573;28;97391;-72
2022/03/11 08:07:55;;;;;;;1999.90;999.90;;;;;;;-3.18;36.09;102280.22;4984695;28;98208;-68
2022/03/11 08:10:22;;;;;;;1999.90;999.90;;;;;;;-3.10;36.20;102281.00;5001680;28;97819;-69
2022/03/11 08:12:52;;;;;;;1999.90;999.90;;;;;;;-3.04;36.45;102282.50;5011412;27;96861;-70
2022/03/11 08:15:20;;;;;;;1999.90;999.90;;;;;;;-2.98;36.01;102280.50;5018478;27;97122;-72
2022/03/11 08:17:47;;;;;;;1999.90;999.90;;;;;;;-2.92;36.06;102262.91;5002789;28;97738;-71
2022/03/11 08:20:18;;;;;;;1999.90;999.90;;;;;;;-2.86;35.71;102268.72;5020973;28;99725;-69
2022/03/11 08:22:47;;;;;;;1999.90;999.90;;;;;;;-2.80;35.54;102263.16;5022031;27;96994;-68
2022/03/11 08:25:16;;;;;;;1999.90;999.90;;;;;;;-2.73;36.19;102268.22;5018839;28;96774;-69
2022/03/11 08:27:44;;;;;;;1999.90;999.90;;;;;;;-2.66;35.97;102270.66;5010155;27;97595;-68
2022/03/11 08:30:12;;;;;;;1999.90;999.90;;;;;;;-2.61;35.74;102260.66;5009674;27;99587;-68
2022/03/11 08:32:41;;;;;;;1999.90;999.90;;;;;;;-2.51;35.98;102271.22;5022568;27;97836;-68
2022/03/11 08:35:13;;;;;;;1999.90;999.90;;;;;;;-2.47;35.65;102266.44;5019625;27;97287;-69
2022/03/11 08:37:41;;;;;;;1999.90;999.90;;;;;;;-2.38;35.34;102259.50;5003471;28;100982;-69
2022/03/11 08:40:10;;;;;;;1999.90;999.90;;;;;;;-2.30;35.25;102269.00;5004758;28;100302;-70
2022/03/11 08:42:40;;;;;;;1999.90;999.90;;;;;;;-2.27;35.36;102268.38;5022350;27;96741;-69
2022/03/11 08:45:10;;;;;;;1999.90;999.90;;;;;;;-2.21;35.44;102272.47;5010535;27;98372;-70
2022/03/11 08:47:44;;;;;;;1999.90;999.90;;;;;;;-2.14;35.43;102267.09;5007604;27;98967;-70
2022/03/11 08:50:11;;;;;;;1999.90;999.90;;;;;;;-2.06;35.24;102262.63;5001422;28;100773;-70
2022/03/11 08:52:40;;;;;;;1999.90;999.90;;;;;;;-1.99;35.54;102265.97;5020920;27;98579;-70
2022/03/11 08:55:08;;;;;;;1999.90;999.90;;;;;;;-1.91;35.30;102258.84;5001820;28;98035;-70
2022/03/11 08:57:37;;;;;;;1999.90;999.90;;;;;;;-1.85;35.04;102259.41;5020115;27;96831;-70
2022/03/11 09:00:12;;;;;;;1999.90;999.90;;;;;;;-1.78;34.54;102258.31;5019078;27;98587;-70
2022/03/11 09:02:40;;;;;;;1999.90;999.90;;;;;;;-1.71;34.71;102252.88;5003631;27;97304;-70
2022/03/11 09:05:09;;;;;;;1999.90;999.90;;;;;;;-1.65;34.56;102250.88;5016564;28;97670;-69
2022/03/11 09:07:37;;;;;;;1999.90;999.90;;;;;;;-1.62;34.12;102253.75;4990040;28;97687;-70
2022/03/11 09:10:07;;;;;;;1999.90;999.90;;;;;;;-1.58;34.39;102248.03;5002494;28;98627;-69
2022/03/11 09:12:35;;;;;;;1999.90;999.90;;;;;;;-1.52;34.41;102246.91;5006648;27;98336;-69
2022/03/11 09:15:03;;;;;;;1999.90;999.90;;;;;;;-1.45;34.53;102245.78;5009498;27;97412;-69
2022/03/11 09:17:33;;;;;;;1999.90;999.90;;;;;;;-1.42;34.35;102252.22;4995457;28;97987;-69
2022/03/11 09:20:03;;;;;;;1999.90;999.90;;;;;;;-1.37;33.90;102255.22;5018950;27;97658;-69
2022/03/11 09:22:53;;;;;;;1999.90;999.90;;;;;;;-1.32;34.40;102233.09;4985050;28;97851;-69
2022/03/11 09:25:21;;;;;;;1999.90;999.90;;;;;;;-1.27;34.25;102237.94;4990073;28;97292;-68
2022/03/11 09:27:49;;;;;;;1999.90;999.90;;;;;;;-1.21;33.67;102232.34;5004012;27;100062;-68
2022/03/11 09:30:16;;;;;;;1999.90;999.90;;;;;;;-1.18;33.72;102228.34;5004797;28;98107;-69
2022/03/11 09:32:46;;;;;;;1999.90;999.90;;;;;;;-1.15;33.59;102223.41;5003136;27;97182;-69
2022/03/11 09:35:15;;;;;;;1999.90;999.90;;;;;;;-1.13;33.40;102232.28;5014226;28;97810;-69
2022/03/11 09:37:43;;;;;;;1999.90;999.90;;;;;;;-1.06;33.71;102236.34;5008787;27;100664;-69
2022/03/11 09:40:12;;;;;;;1999.90;999.90;;;;;;;-1.02;34.13;102238.47;5013391;27;100419;-68
2022/03/11 09:42:40;;;;;;;1999.90;999.90;;;;;;;-0.97;33.59;102230.28;5002047;28;98412;-69
2022/03/11 09:45:09;;;;;;;1999.90;999.90;;;;;;;-0.90;33.50;102218.66;5010464;28;98384;-69
2022/03/11 09:47:39;;;;;;;1999.90;999.90;;;;;;;-0.83;33.35;102215.84;5006407;27;99417;-68
2022/03/11 09:50:09;;;;;;;1999.90;999.90;;;;;;;-0.76;33.37;102206.84;5015659;27;98728;-69
2022/03/11 09:52:39;;;;;;;1999.90;999.90;;;;;;;-0.72;33.54;102206.34;5018086;27;96986;-70
2022/03/11 09:55:08;;;;;;;1999.90;999.90;;;;;;;-0.67;33.62;102195.50;5017063;27;97657;-67
2022/03/11 09:57:36;;;;;;;1999.90;999.90;;;;;;;-0.59;33.77;102204.03;4997930;28;98913;-68
2022/03/11 10:00:05;;;;;;;1999.90;999.90;;;;;;;-0.54;33.27;102202.75;5016950;27;99359;-69
2022/03/11 10:02:41;;;;;;;1999.90;999.90;;;;;;;-0.50;33.06;102204.84;5010423;27;98527;-69
2022/03/11 10:05:13;;;;;;;1999.90;999.90;;;;;;;-0.46;32.96;102207.84;4999683;27;97364;-69
2022/03/11 10:08:01;;;;;;;1999.90;999.90;;;;;;;-0.39;32.92;102202.38;5003398;27;98737;-70
2022/03/11 10:10:29;;;;;;;1999.90;999.90;;;;;;;-0.29;33.14;102207.63;5017406;27;97084;-69
2022/03/11 10:13:08;;;;;;;1999.90;999.90;;;;;;;-0.21;32.95;102206.56;5013371;27;97262;-70
2022/03/11 10:15:37;;;;;;;1999.90;999.90;;;;;;;-0.15;32.65;102190.50;5001879;27;97601;-69
2022/03/11 10:18:08;;;;;;;1999.90;999.90;;;;;;;-0.10;31.28;102199.69;4994292;27;97937;-69
2022/03/11 10:20:38;;;;;;;1999.90;999.90;;;;;;;-0.03;32.33;102192.47;5005269;27;96986;-69
2022/03/11 10:23:10;;;;;;;1999.90;999.90;;;;;;;0.00;31.98;102192.75;5017844;27;98085;-70
2022/03/11 10:25:38;;;;;;;1999.90;999.90;;;;;;;0.06;32.24;102176.66;5000951;28;97374;-70
2022/03/11 10:28:08;;;;;;;1999.90;999.90;;;;;;;0.10;32.24;102187.50;4999011;28;98767;-69
2022/03/11 10:30:37;;;;;;;1999.90;999.90;;;;;;;0.13;31.73;102179.94;5009716;27;98113;-69
2022/03/11 10:33:06;;;;;;;1999.90;999.90;;;;;;;0.20;32.21;102176.09;5012475;27;98175;-69
2022/03/11 10:35:36;;;;;;;1999.90;999.90;;;;;;;0.26;30.40;102160.97;5020573;27;97328;-70
2022/03/11 10:38:07;;;;;;;1999.90;999.90;;;;;;;0.33;31.57;102170.25;5006212;27;99172;-69
2022/03/11 10:40:36;;;;;;;1999.90;999.90;;;;;;;0.36;31.58;102166.16;5009511;28;98647;-69
2022/03/11 10:43:26;;;;;;;1999.90;999.90;;;;;;;0.44;28.35;102177.28;5013526;27;97893;-68
2022/03/11 10:45:55;;;;;;;1999.90;999.90;;;;;;;0.49;31.58;102163.78;4993955;28;97470;-67
2022/03/11 10:48:44;;;;;;;1999.90;999.90;;;;;;;0.54;28.67;102177.28;5008217;27;98065;-68
2022/03/11 10:51:13;;;;;;;1999.90;999.90;;;;;;;0.64;31.69;102177.25;4985097;28;100472;-69
2022/03/11 10:53:42;;;;;;;1999.90;999.90;;;;;;;0.72;31.76;102170.94;4999539;28;97299;-69